Country
Station

 

Weather  for  Borlange  -  Sweden    Sweden

  
18 °C (64 °F)
    
 
 

Current METAR for Borlange is :

ESSD 201950Z AUTO 24007KT 9999 FEW070/// SCT110/// 18/14 Q1004

 

This is a report for Borlange - Sweden.
 
The report was made 32 minutes ago, at 19:50 UTC .
The wind was blowing at a speed of 3.6 meters per second (8.1 miles per hour) from west/southwest (240°).
 
The temperature was 18 °C (64 °F), with a dew-point at 14 °C (57 °F).
The atmospheric pressure was 1004 hPa (29.65 inHg).
The relative humidity was 77.5%.
 
The overall visibility was greater than 10 kilometers (6.2 miles).
 

 
 
 
 

Country :   A   B   C   D   E   F   G   H   I   J   K   L   M   N   O   P   Q   R   S   T   U   V   W   Y   Z

 

Site Info  |  Disclaimer  |  Credits  |  Privacy
Contact us  |  Add to favorites
© 2013-2019 METARs - All rights reserved